Time;durP1;ratioP1;P1;durP2;ratioP2;P2;SDS_P1;SDS_P2;PMS_P1;PMS_P2;Temp;Humidity;BMP_temperature;BMP_pressure;BME280_temperature;BME280_humidity;BME280_pressure;Samples;Min_cycle;Max_cycle;Signal;HPM_P1;HPM_P2
2023/11/04 00:01:21;;;;;;;;;;;19.80;57.70;;;;;;1598777;72;1150;-67
2023/11/04 00:03:23;;;;;;;;;;;19.80;57.60;;;;;;1603198;72;597;-68
2023/11/04 00:05:25;;;;;;;;;;;19.80;57.70;;;;;;1604148;72;702;-69
2023/11/04 00:07:27;;;;;;;;;;;19.80;57.70;;;;;;1603982;72;718;-68
2023/11/04 00:09:29;;;;;;;;;;;19.80;57.80;;;;;;1600912;72;1956;-69
2023/11/04 00:11:31;;;;;;;;;;;19.80;57.80;;;;;;1593309;72;1151;-71
2023/11/04 00:13:33;;;;;;;;;;;19.80;57.80;;;;;;1603674;72;770;-67
2023/11/04 00:15:35;;;;;;;;;;;19.80;57.80;;;;;;1607915;72;1056;-67
2023/11/04 00:17:36;;;;;;;;;;;19.80;57.80;;;;;;1601238;72;666;-67
2023/11/04 00:19:38;;;;;;;;;;;19.80;57.70;;;;;;1598999;72;714;-68
2023/11/04 00:21:41;;;;;;;;;;;19.80;57.80;;;;;;1604290;72;1178;-69
2023/11/04 00:23:43;;;;;;;;;;;19.70;57.70;;;;;;1610326;72;1567;-67
2023/11/04 00:25:45;;;;;;;;;;;19.80;57.70;;;;;;1602157;72;727;-68
2023/11/04 00:27:47;;;;;;;;;;;19.80;57.80;;;;;;1600761;72;734;-68
2023/11/04 00:29:49;;;;;;;;;;;19.80;57.70;;;;;;1584681;73;1945;-69
2023/11/04 00:31:51;;;;;;;;;;;19.80;57.80;;;;;;1608610;72;1150;-67
2023/11/04 00:33:53;;;;;;;;;;;19.80;57.80;;;;;;1610758;72;672;-67
2023/11/04 00:35:54;;;;;;;;;;;19.80;57.80;;;;;;1602854;72;729;-67
2023/11/04 00:37:56;;;;;;;;;;;19.80;57.80;;;;;;1605680;72;1573;-66
2023/11/04 00:40:00;;;;;;;;;;;19.80;57.80;;;;;;1607727;72;741;-67
2023/11/04 00:42:02;;;;;;;;;;;19.80;57.90;;;;;;1597458;72;1127;-70
2023/11/04 00:44:05;;;;;;;;;;;19.80;58.00;;;;;;1598796;72;724;-66
2023/11/04 00:46:07;;;;;;;;;;;19.70;58.00;;;;;;1600524;72;787;-66
2023/11/04 00:48:09;;;;;;;;;;;19.80;58.00;;;;;;1603290;72;735;-66
2023/11/04 00:50:11;;;;;;;;;;;19.80;58.10;;;;;;1605242;72;1910;-66
2023/11/04 00:52:13;;;;;;;;;;;19.70;58.00;;;;;;1596828;72;1505;-67
2023/11/04 00:54:15;;;;;;;;;;;19.80;58.10;;;;;;1606591;72;620;-66
2023/11/04 00:56:17;;;;;;;;;;;19.80;58.10;;;;;;1599657;72;671;-66
2023/11/04 00:58:19;;;;;;;;;;;19.70;58.00;;;;;;1602283;72;695;-67
2023/11/04 01:00:25;;;;;;;;;;;19.80;58.10;;;;;;1602168;72;677;-65
2023/11/04 01:02:24;;;;;;;;;;;19.80;58.10;;;;;;1596660;72;1808;-66
2023/11/04 01:04:26;;;;;;;;;;;19.80;58.10;;;;;;1600712;72;782;-69
2023/11/04 01:06:28;;;;;;;;;;;19.80;58.20;;;;;;1598392;72;1578;-66
2023/11/04 01:08:30;;;;;;;;;;;19.80;58.10;;;;;;1597794;72;766;-67
2023/11/04 01:10:32;;;;;;;;;;;19.70;58.20;;;;;;1604631;72;1939;-68
2023/11/04 01:12:34;;;;;;;;;;;19.80;58.10;;;;;;1600388;72;1138;-66
2023/11/04 01:14:36;;;;;;;;;;;19.80;58.20;;;;;;1604206;72;672;-66
2023/11/04 01:16:38;;;;;;;;;;;19.80;58.20;;;;;;1581846;73;761;-66
2023/11/04 01:18:40;;;;;;;;;;;19.80;58.30;;;;;;1602614;72;1533;-67
2023/11/04 01:20:42;;;;;;;;;;;19.80;58.20;;;;;;1593758;72;730;-67
2023/11/04 01:22:44;;;;;;;;;;;19.70;58.20;;;;;;1589459;73;1112;-67
2023/11/04 01:24:45;;;;;;;;;;;19.80;58.30;;;;;;1606941;72;753;-72
2023/11/04 01:26:48;;;;;;;;;;;19.80;58.30;;;;;;1605735;72;756;-71
2023/11/04 01:28:50;;;;;;;;;;;19.80;58.30;;;;;;1599633;72;809;-68
2023/11/04 01:30:51;;;;;;;;;;;19.80;58.40;;;;;;1597909;72;1949;-69
2023/11/04 01:32:53;;;;;;;;;;;19.80;58.40;;;;;;1598203;72;1593;-69
2023/11/04 01:34:55;;;;;;;;;;;19.80;58.30;;;;;;1593005;72;727;-69
2023/11/04 01:36:57;;;;;;;;;;;19.70;58.30;;;;;;1599001;72;819;-69
2023/11/04 01:38:59;;;;;;;;;;;19.80;58.30;;;;;;1601601;72;797;-63
2023/11/04 01:41:01;;;;;;;;;;;19.80;58.30;;;;;;1598237;72;719;-63
2023/11/04 01:43:03;;;;;;;;;;;19.80;58.30;;;;;;1597524;72;1096;-65
2023/11/04 01:45:06;;;;;;;;;;;19.80;58.40;;;;;;1605196;72;771;-65
2023/11/04 01:47:08;;;;;;;;;;;19.80;58.40;;;;;;1597434;72;1526;-64
2023/11/04 01:49:10;;;;;;;;;;;19.80;58.50;;;;;;1594948;72;754;-64
2023/11/04 01:51:13;;;;;;;;;;;19.80;58.40;;;;;;1607585;72;1908;-64
2023/11/04 01:53:15;;;;;;;;;;;20.00;58.40;;;;;;1611382;72;714;-64
2023/11/04 01:55:16;;;;;;;;;;;19.80;58.30;;;;;;1598916;72;677;-65
2023/11/04 01:57:18;;;;;;;;;;;19.80;58.40;;;;;;1599025;72;755;-64
2023/11/04 01:59:21;;;;;;;;;;;19.80;58.40;;;;;;1606659;72;799;-65
2023/11/04 02:01:23;;;;;;;;;;;19.80;58.40;;;;;;1600046;72;1577;-67
2023/11/04 02:03:24;;;;;;;;;;;19.80;58.50;;;;;;1604976;72;685;-64
2023/11/04 02:05:26;;;;;;;;;;;19.80;58.40;;;;;;1606436;72;730;-66
2023/11/04 02:07:28;;;;;;;;;;;19.80;58.40;;;;;;1603184;72;693;-65
2023/11/04 02:09:30;;;;;;;;;;;19.80;58.30;;;;;;1605755;72;868;-68
2023/11/04 02:11:33;;;;;;;;;;;19.80;58.30;;;;;;1604493;72;1914;-65
2023/11/04 02:13:34;;;;;;;;;;;19.80;58.40;;;;;;1602005;72;740;-68
2023/11/04 02:15:36;;;;;;;;;;;19.80;58.40;;;;;;1599170;72;1521;-64
2023/11/04 02:17:38;;;;;;;;;;;19.80;58.40;;;;;;1601281;72;720;-64
2023/11/04 02:19:40;;;;;;;;;;;19.80;58.50;;;;;;1600292;72;794;-65
2023/11/04 02:21:42;;;;;;;;;;;19.80;58.50;;;;;;1603517;72;1123;-68
2023/11/04 02:23:44;;;;;;;;;;;19.80;58.50;;;;;;1590002;73;811;-64
2023/11/04 02:25:46;;;;;;;;;;;19.80;58.50;;;;;;1611232;72;756;-64
2023/11/04 02:27:48;;;;;;;;;;;19.70;58.50;;;;;;1610769;72;714;-64
2023/11/04 02:29:50;;;;;;;;;;;19.80;58.70;;;;;;1591045;72;1550;-64
2023/11/04 02:31:52;;;;;;;;;;;19.80;58.60;;;;;;1604984;72;1929;-64
2023/11/04 02:33:53;;;;;;;;;;;19.80;58.60;;;;;;1589913;72;675;-66
2023/11/04 02:35:55;;;;;;;;;;;19.70;58.60;;;;;;1601681;72;710;-64
2023/11/04 02:37:57;;;;;;;;;;;19.70;58.50;;;;;;1609149;72;731;-65
2023/11/04 02:39:59;;;;;;;;;;;19.80;58.60;;;;;;1601529;72;728;-65
2023/11/04 02:42:01;;;;;;;;;;;19.80;58.60;;;;;;1614292;72;1130;-63
2023/11/04 02:44:03;;;;;;;;;;;19.70;58.50;;;;;;1589511;72;1609;-64
2023/11/04 02:46:05;;;;;;;;;;;19.70;58.60;;;;;;1597002;72;766;-63
2023/11/04 02:48:07;;;;;;;;;;;19.70;58.50;;;;;;1607987;72;848;-64
2023/11/04 02:50:09;;;;;;;;;;;19.70;58.60;;;;;;1600572;72;740;-66
2023/11/04 02:52:11;;;;;;;;;;;19.70;58.60;;;;;;1603303;72;1944;-66
2023/11/04 02:54:13;;;;;;;;;;;19.70;58.70;;;;;;1605990;72;685;-68
2023/11/04 02:56:15;;;;;;;;;;;19.60;58.60;;;;;;1614662;72;568;-63
2023/11/04 02:58:17;;;;;;;;;;;19.80;58.80;;;;;;1597461;72;1507;-62
2023/11/04 03:00:19;;;;;;;;;;;19.70;58.70;;;;;;1604544;72;786;-61
2023/11/04 03:02:21;;;;;;;;;;;19.80;58.90;;;;;;1604329;72;1131;-62
2023/11/04 03:04:25;;;;;;;;;;;19.70;58.90;;;;;;1592131;72;627;-62
2023/11/04 03:06:26;;;;;;;;;;;19.70;58.80;;;;;;1601581;72;1686;-62
2023/11/04 03:08:29;;;;;;;;;;;19.80;58.90;;;;;;1597498;72;621;-62
2023/11/04 03:10:31;;;;;;;;;;;19.70;58.80;;;;;;1604860;72;1917;-63
2023/11/04 03:12:33;;;;;;;;;;;19.80;58.80;;;;;;1587822;73;1493;-66
2023/11/04 03:14:35;;;;;;;;;;;19.80;58.80;;;;;;1601115;72;642;-63
2023/11/04 03:16:37;;;;;;;;;;;19.80;58.80;;;;;;1590495;73;755;-63
2023/11/04 03:18:39;;;;;;;;;;;19.70;58.80;;;;;;1605452;72;806;-62
2023/11/04 03:20:41;;;;;;;;;;;19.80;58.80;;;;;;1603680;72;762;-62
2023/11/04 03:22:43;;;;;;;;;;;19.80;58.80;;;;;;1594313;72;1127;-65
2023/11/04 03:24:45;;;;;;;;;;;19.70;58.80;;;;;;1610554;72;738;-62
2023/11/04 03:26:47;;;;;;;;;;;19.70;58.70;;;;;;1604702;72;1396;-62
2023/11/04 03:28:49;;;;;;;;;;;19.80;58.70;;;;;;1610439;72;984;-61
2023/11/04 03:30:51;;;;;;;;;;;19.70;58.70;;;;;;1610444;72;1926;-65
2023/11/04 03:32:53;;;;;;;;;;;19.70;58.80;;;;;;1605207;72;1135;-62
2023/11/04 03:34:55;;;;;;;;;;;19.70;58.70;;;;;;1609249;72;740;-62
2023/11/04 03:36:57;;;;;;;;;;;19.70;58.70;;;;;;1606195;72;731;-63
2023/11/04 03:38:59;;;;;;;;;;;19.80;58.70;;;;;;1612720;72;651;-68
2023/11/04 03:41:00;;;;;;;;;;;19.70;58.70;;;;;;1597515;72;1527;-63
2023/11/04 03:43:02;;;;;;;;;;;19.70;58.80;;;;;;1599532;72;1105;-65
2023/11/04 03:45:06;;;;;;;;;;;19.80;58.90;;;;;;1595243;72;781;-63
2023/11/04 03:47:08;;;;;;;;;;;19.80;58.90;;;;;;1605701;72;742;-63
2023/11/04 03:49:10;;;;;;;;;;;19.70;58.90;;;;;;1598735;72;742;-62
2023/11/04 03:51:11;;;;;;;;;;;19.70;58.90;;;;;;1617045;72;1934;-63
2023/11/04 03:53:14;;;;;;;;;;;19.70;58.90;;;;;;1598726;72;944;-63
2023/11/04 03:55:17;;;;;;;;;;;19.80;58.80;;;;;;1602211;72;1642;-64
2023/11/04 03:57:19;;;;;;;;;;;19.70;58.90;;;;;;1607383;72;741;-63
2023/11/04 03:59:20;;;;;;;;;;;19.70;58.90;;;;;;1600134;72;689;-63
2023/11/04 04:01:22;;;;;;;;;;;19.70;58.80;;;;;;1604665;72;1127;-62
2023/11/04 04:03:24;;;;;;;;;;;19.70;58.90;;;;;;1598930;72;864;-63
2023/11/04 04:05:26;;;;;;;;;;;19.70;58.90;;;;;;1607687;72;785;-64
2023/11/04 04:07:28;;;;;;;;;;;19.70;58.90;;;;;;1600358;72;1283;-64
2023/11/04 04:09:32;;;;;;;;;;;19.80;58.90;;;;;;1600969;72;808;-67
2023/11/04 04:11:34;;;;;;;;;;;19.70;58.90;;;;;;1601182;72;1922;-63
2023/11/04 04:13:36;;;;;;;;;;;19.70;58.90;;;;;;1600432;72;681;-65
2023/11/04 04:15:38;;;;;;;;;;;19.80;58.80;;;;;;1604510;72;784;-69
2023/11/04 04:17:40;;;;;;;;;;;19.80;58.90;;;;;;1603388;72;742;-66
2023/11/04 04:19:42;;;;;;;;;;;19.70;58.80;;;;;;1590994;73;739;-67
2023/11/04 04:21:44;;;;;;;;;;;19.70;58.90;;;;;;1611554;72;1543;-66
2023/11/04 04:23:46;;;;;;;;;;;19.70;58.90;;;;;;1599314;72;633;-66
2023/11/04 04:25:48;;;;;;;;;;;19.80;58.90;;;;;;1595613;72;792;-65
2023/11/04 04:27:50;;;;;;;;;;;19.80;58.90;;;;;;1590676;72;786;-65
2023/11/04 04:29:52;;;;;;;;;;;19.70;59.00;;;;;;1592804;72;725;-64
2023/11/04 04:31:54;;;;;;;;;;;19.70;59.00;;;;;;1604816;72;1934;-66
2023/11/04 04:33:56;;;;;;;;;;;19.80;58.90;;;;;;1604270;72;794;-67
2023/11/04 04:35:58;;;;;;;;;;;19.70;58.90;;;;;;1605864;72;1284;-64
2023/11/04 04:38:00;;;;;;;;;;;19.70;59.00;;;;;;1586753;73;738;-65
2023/11/04 04:40:05;;;;;;;;;;;19.80;58.90;;;;;;1606096;72;791;-65
2023/11/04 04:42:06;;;;;;;;;;;19.70;59.00;;;;;;1612889;72;1601;-64
2023/11/04 04:44:07;;;;;;;;;;;19.80;59.00;;;;;;1589225;73;587;-64
2023/11/04 04:46:10;;;;;;;;;;;19.80;59.00;;;;;;1609527;72;727;-65
2023/11/04 04:48:12;;;;;;;;;;;19.70;59.00;;;;;;1600832;72;739;-64
2023/11/04 04:50:15;;;;;;;;;;;19.70;58.90;;;;;;1601346;72;1528;-66
2023/11/04 04:52:17;;;;;;;;;;;19.70;59.00;;;;;;1599951;72;1932;-64
2023/11/04 04:54:19;;;;;;;;;;;19.80;59.00;;;;;;1604379;72;837;-64
2023/11/04 04:56:21;;;;;;;;;;;19.80;59.00;;;;;;1602127;72;804;-64
2023/11/04 04:58:23;;;;;;;;;;;19.70;59.00;;;;;;1599304;72;785;-67
2023/11/04 05:00:24;;;;;;;;;;;19.70;59.00;;;;;;1602339;72;690;-65
2023/11/04 05:02:26;;;;;;;;;;;19.70;59.00;;;;;;1596272;72;1123;-65
2023/11/04 05:04:28;;;;;;;;;;;19.70;59.00;;;;;;1604465;72;1545;-65
2023/11/04 05:06:30;;;;;;;;;;;19.70;59.10;;;;;;1595142;72;1021;-67
2023/11/04 05:08:32;;;;;;;;;;;19.70;59.00;;;;;;1608547;72;735;-66
2023/11/04 05:10:34;;;;;;;;;;;19.70;59.10;;;;;;1601148;72;854;-66
2023/11/04 05:12:36;;;;;;;;;;;19.70;59.00;;;;;;1604012;72;1941;-65
2023/11/04 05:14:38;;;;;;;;;;;19.80;59.00;;;;;;1600279;72;695;-65
2023/11/04 05:16:40;;;;;;;;;;;19.70;59.10;;;;;;1595880;72;839;-66
2023/11/04 05:18:42;;;;;;;;;;;19.70;59.20;;;;;;1605718;72;1539;-67
2023/11/04 05:20:44;;;;;;;;;;;19.70;59.10;;;;;;1607773;72;769;-67
2023/11/04 05:22:45;;;;;;;;;;;19.70;59.10;;;;;;1602084;72;1139;-67
2023/11/04 05:24:48;;;;;;;;;;;19.70;59.00;;;;;;1604701;72;757;-66
2023/11/04 05:26:51;;;;;;;;;;;19.70;59.00;;;;;;1600662;72;766;-68
2023/11/04 05:28:52;;;;;;;;;;;19.70;59.00;;;;;;1603593;72;685;-66
2023/11/04 05:30:55;;;;;;;;;;;19.80;59.00;;;;;;1606841;72;678;-65
2023/11/04 05:32:58;;;;;;;;;;;19.70;59.10;;;;;;1601228;72;1890;-66
2023/11/04 05:35:00;;;;;;;;;;;19.70;59.10;;;;;;1603805;72;699;-65
2023/11/04 05:37:02;;;;;;;;;;;19.70;59.10;;;;;;1599527;72;842;-66
2023/11/04 05:39:05;;;;;;;;;;;19.70;59.20;;;;;;1606821;72;745;-66
2023/11/04 05:41:07;;;;;;;;;;;19.80;59.00;;;;;;1606901;72;654;-68
2023/11/04 05:43:09;;;;;;;;;;;19.80;59.10;;;;;;1602029;72;1177;-67
2023/11/04 05:45:11;;;;;;;;;;;19.80;59.10;;;;;;1605999;72;779;-66
2023/11/04 05:47:13;;;;;;;;;;;19.70;59.00;;;;;;1601135;72;1576;-65
2023/11/04 05:49:15;;;;;;;;;;;19.70;59.00;;;;;;1601575;72;684;-66
2023/11/04 05:51:26;;;;;;;;;;;19.80;59.10;;;;;;1595370;72;1141;-66
2023/11/04 05:53:27;;;;;;;;;;;19.70;59.10;;;;;;1603332;72;696;-66
2023/11/04 05:55:29;;;;;;;;;;;19.70;59.10;;;;;;1603456;72;845;-66
2023/11/04 05:57:31;;;;;;;;;;;19.70;59.00;;;;;;1601834;72;866;-65
2023/11/04 05:59:33;;;;;;;;;;;19.80;59.10;;;;;;1589619;73;673;-65
2023/11/04 06:01:35;;;;;;;;;;;19.70;59.00;;;;;;1598209;72;1288;-65
2023/11/04 06:03:37;;;;;;;;;;;19.70;59.10;;;;;;1601672;72;719;-64
2023/11/04 06:05:39;;;;;;;;;;;19.70;59.00;;;;;;1600791;72;781;-65
2023/11/04 06:07:41;;;;;;;;;;;19.70;59.10;;;;;;1589969;73;727;-66
2023/11/04 06:09:43;;;;;;;;;;;19.80;59.10;;;;;;1602824;72;735;-65
2023/11/04 06:11:44;;;;;;;;;;;19.70;59.10;;;;;;1596155;72;1944;-67
2023/11/04 06:13:46;;;;;;;;;;;19.70;59.10;;;;;;1609177;72;714;-65
2023/11/04 06:15:48;;;;;;;;;;;19.70;59.10;;;;;;1607624;72;1478;-66
2023/11/04 06:17:50;;;;;;;;;;;19.70;59.20;;;;;;1596064;72;721;-66
2023/11/04 06:19:52;;;;;;;;;;;19.70;59.10;;;;;;1608856;72;787;-69
2023/11/04 06:21:54;;;;;;;;;;;19.70;59.20;;;;;;1603152;72;1114;-66
2023/11/04 06:23:56;;;;;;;;;;;19.70;59.10;;;;;;1608626;72;717;-67
2023/11/04 06:25:58;;;;;;;;;;;19.80;59.20;;;;;;1598887;72;758;-68
2023/11/04 06:28:01;;;;;;;;;;;19.70;59.00;;;;;;1606920;72;747;-67
2023/11/04 06:30:03;;;;;;;;;;;19.70;59.20;;;;;;1604055;72;788;-66
2023/11/04 06:32:05;;;;;;;;;;;19.70;59.20;;;;;;1596821;72;1926;-67
2023/11/04 06:34:07;;;;;;;;;;;19.70;59.30;;;;;;1606294;72;741;-68
2023/11/04 06:36:09;;;;;;;;;;;19.80;59.20;;;;;;1611383;72;782;-66
2023/11/04 06:38:11;;;;;;;;;;;19.70;59.30;;;;;;1605067;72;662;-67
2023/11/04 06:40:13;;;;;;;;;;;19.70;59.30;;;;;;1614974;72;727;-66
2023/11/04 06:42:18;;;;;;;;;;;19.80;59.20;;;;;;1608634;72;1556;-69
2023/11/04 06:44:18;;;;;;;;;;;19.70;59.30;;;;;;1603880;72;1740;-72
2023/11/04 06:46:20;;;;;;;;;;;19.70;59.20;;;;;;1603122;72;732;-67
2023/11/04 06:48:22;;;;;;;;;;;19.70;59.30;;;;;;1605159;72;943;-66
2023/11/04 06:50:24;;;;;;;;;;;19.70;59.40;;;;;;1597981;72;794;-68
2023/11/04 06:52:26;;;;;;;;;;;19.70;59.50;;;;;;1605155;72;1963;-67
2023/11/04 06:54:28;;;;;;;;;;;19.80;59.50;;;;;;1597150;72;721;-68
2023/11/04 06:56:33;;;;;;;;;;;19.70;59.50;;;;;;1604310;72;1517;-67
2023/11/04 06:58:35;;;;;;;;;;;19.80;59.50;;;;;;1598294;72;779;-69
2023/11/04 07:00:37;;;;;;;;;;;19.70;59.50;;;;;;1608563;72;684;-66
2023/11/04 07:02:41;;;;;;;;;;;19.80;59.50;;;;;;1602841;72;1134;-66
2023/11/04 07:04:43;;;;;;;;;;;19.70;59.60;;;;;;1588062;73;742;-66
2023/11/04 07:06:44;;;;;;;;;;;19.70;59.50;;;;;;1604777;72;740;-68
2023/11/04 07:08:46;;;;;;;;;;;19.70;59.50;;;;;;1596188;72;788;-65
2023/11/04 07:10:48;;;;;;;;;;;19.80;59.60;;;;;;1600722;72;1569;-66
2023/11/04 07:12:50;;;;;;;;;;;19.70;59.60;;;;;;1594971;72;1961;-65
2023/11/04 07:14:53;;;;;;;;;;;19.70;59.60;;;;;;1604234;72;717;-65
2023/11/04 07:16:55;;;;;;;;;;;19.70;59.60;;;;;;1603887;72;736;-68
2023/11/04 07:18:57;;;;;;;;;;;19.70;59.60;;;;;;1603213;72;717;-69
2023/11/04 07:20:59;;;;;;;;;;;19.70;59.60;;;;;;1601876;72;723;-68
2023/11/04 07:23:01;;;;;;;;;;;19.70;59.50;;;;;;1590710;73;1104;-68
2023/11/04 07:25:03;;;;;;;;;;;19.70;59.50;;;;;;1605580;72;1335;-66
2023/11/04 07:27:05;;;;;;;;;;;19.80;59.70;;;;;;1599845;72;791;-65
2023/11/04 07:29:07;;;;;;;;;;;19.80;59.60;;;;;;1600010;72;633;-68
2023/11/04 07:31:09;;;;;;;;;;;19.80;59.50;;;;;;1599637;72;817;-66
2023/11/04 07:33:11;;;;;;;;;;;19.80;59.10;;;;;;1599289;72;1936;-65
2023/11/04 07:35:13;;;;;;;;;;;19.80;55.40;;;;;;1596119;72;1009;-67
2023/11/04 07:37:15;;;;;;;;;;;19.70;53.90;;;;;;1599630;72;702;-65
2023/11/04 07:39:17;;;;;;;;;;;19.70;53.00;;;;;;1594320;72;1523;-66
2023/11/04 07:41:19;;;;;;;;;;;19.50;52.00;;;;;;1598349;72;1176;-66
2023/11/04 07:43:21;;;;;;;;;;;19.50;52.00;;;;;;1592617;72;809;-66
2023/11/04 07:45:23;;;;;;;;;;;19.40;51.30;;;;;;1605258;72;729;-68
2023/11/04 07:47:25;;;;;;;;;;;19.30;51.10;;;;;;1600927;72;819;-67
2023/11/04 07:49:27;;;;;;;;;;;19.30;50.90;;;;;;1605109;72;741;-67
2023/11/04 07:51:29;;;;;;;;;;;19.20;50.60;;;;;;1602689;72;1161;-66
2023/11/04 07:53:31;;;;;;;;;;;19.20;50.60;;;;;;1607693;72;1932;-66
2023/11/04 07:55:33;;;;;;;;;;;19.20;50.20;;;;;;1594375;72;859;-67
2023/11/04 07:57:38;;;;;;;;;;;19.20;49.90;;;;;;1590325;73;1337;-67
2023/11/04 07:59:40;;;;;;;;;;;19.10;49.80;;;;;;1604906;72;756;-68
2023/11/04 08:01:42;;;;;;;;;;;19.10;49.80;;;;;;1602155;72;1127;-66
2023/11/04 08:03:45;;;;;;;;;;;19.10;49.30;;;;;;1599441;72;719;-65
2023/11/04 08:05:47;;;;;;;;;;;19.10;49.20;;;;;;1603950;72;720;-67
2023/11/04 08:07:49;;;;;;;;;;;19.10;49.20;;;;;;1605453;72;1546;-66
2023/11/04 08:09:51;;;;;;;;;;;19.10;49.10;;;;;;1616322;72;685;-67
2023/11/04 08:11:53;;;;;;;;;;;19.20;49.20;;;;;;1612888;72;1147;-69
2023/11/04 08:13:55;;;;;;;;;;;19.20;49.10;;;;;;1599057;72;1952;-66
2023/11/04 08:15:57;;;;;;;;;;;19.10;48.90;;;;;;1607657;72;943;-70
2023/11/04 08:17:59;;;;;;;;;;;19.10;48.90;;;;;;1601564;72;815;-66
2023/11/04 08:20:05;;;;;;;;;;;19.20;49.10;;;;;;1608656;72;1327;-67
2023/11/04 08:22:05;;;;;;;;;;;19.20;48.90;;;;;;1595949;72;1533;-66
2023/11/04 08:24:07;;;;;;;;;;;19.20;49.20;;;;;;1608941;72;1135;-66
2023/11/04 08:26:10;;;;;;;;;;;19.20;49.20;;;;;;1603723;72;1323;-65
2023/11/04 08:28:12;;;;;;;;;;;19.30;49.30;;;;;;1609623;72;1276;-65
2023/11/04 08:30:14;;;;;;;;;;;19.30;48.90;;;;;;1600541;72;1487;-66
2023/11/04 08:32:16;;;;;;;;;;;19.30;48.40;;;;;;1607748;72;1369;-68
2023/11/04 08:34:18;;;;;;;;;;;19.30;48.40;;;;;;1599900;72;2176;-66
2023/11/04 08:36:20;;;;;;;;;;;19.40;48.50;;;;;;1600477;72;1313;-66
2023/11/04 08:38:22;;;;;;;;;;;19.30;48.30;;;;;;1595405;72;1218;-65
2023/11/04 08:40:24;;;;;;;;;;;19.30;48.40;;;;;;1597833;72;1233;-66
2023/11/04 08:42:25;;;;;;;;;;;19.30;48.00;;;;;;1599768;72;1107;-67
2023/11/04 08:44:28;;;;;;;;;;;19.30;47.80;;;;;;1601991;72;1154;-68
2023/11/04 08:46:30;;;;;;;;;;;19.40;47.80;;;;;;1600378;72;1323;-67
2023/11/04 08:48:32;;;;;;;;;;;19.40;47.80;;;;;;1602609;72;1341;-67
2023/11/04 08:50:33;;;;;;;;;;;19.30;47.60;;;;;;1603049;72;1692;-68
2023/11/04 08:52:35;;;;;;;;;;;19.40;47.70;;;;;;1595734;72;1933;-66
2023/11/04 08:54:37;;;;;;;;;;;19.30;47.60;;;;;;1596381;72;1316;-66
2023/11/04 08:56:39;;;;;;;;;;;19.30;47.60;;;;;;1600881;72;1131;-65
2023/11/04 08:58:46;;;;;;;;;;;19.40;47.40;;;;;;1602987;72;1420;-68
2023/11/04 09:00:48;;;;;;;;;;;19.40;47.30;;;;;;1596764;72;1624;-67
2023/11/04 09:02:49;;;;;;;;;;;19.30;47.30;;;;;;1561854;75;1676;-66
2023/11/04 09:04:51;;;;;;;;;;;19.40;47.30;;;;;;1598946;72;1281;-66
2023/11/04 09:06:53;;;;;;;;;;;19.40;47.40;;;;;;1603815;72;1352;-66
2023/11/04 09:08:55;;;;;;;;;;;19.40;47.10;;;;;;1603515;72;1084;-65
2023/11/04 09:10:57;;;;;;;;;;;19.40;47.20;;;;;;1607636;72;1634;-70
2023/11/04 09:12:58;;;;;;;;;;;19.40;47.20;;;;;;1604040;72;1948;-66
2023/11/04 09:15:01;;;;;;;;;;;19.40;47.30;;;;;;1607851;72;1363;-66
2023/11/04 09:17:03;;;;;;;;;;;19.40;47.10;;;;;;1601019;72;1561;-71
2023/11/04 09:19:05;;;;;;;;;;;19.40;47.30;;;;;;1606938;72;1333;-69
2023/11/04 09:21:07;;;;;;;;;;;19.40;47.40;;;;;;1602867;72;1384;-66
2023/11/04 09:23:10;;;;;;;;;;;19.50;48.30;;;;;;1606795;72;1357;-65
2023/11/04 09:25:12;;;;;;;;;;;19.60;48.90;;;;;;1602105;72;1355;-66
2023/11/04 09:27:14;;;;;;;;;;;19.60;49.30;;;;;;1600780;72;1326;-65
2023/11/04 09:29:16;;;;;;;;;;;19.60;49.50;;;;;;1593337;72;1261;-65
2023/11/04 09:31:17;;;;;;;;;;;19.70;49.90;;;;;;1602137;72;1445;-66
2023/11/04 09:33:19;;;;;;;;;;;19.70;50.00;;;;;;1604006;72;1932;-66
2023/11/04 09:35:22;;;;;;;;;;;19.70;50.30;;;;;;1612836;72;734;-66
2023/11/04 09:37:24;;;;;;;;;;;19.60;50.30;;;;;;1604673;72;716;-65
2023/11/04 09:39:26;;;;;;;;;;;19.70;50.60;;;;;;1612329;72;743;-66
2023/11/04 09:41:28;;;;;;;;;;;19.70;50.70;;;;;;1610589;72;1131;-66
2023/11/04 09:43:30;;;;;;;;;;;19.80;50.80;;;;;;1598350;72;873;-67
2023/11/04 09:45:32;;;;;;;;;;;19.80;51.00;;;;;;1600804;72;1532;-66
2023/11/04 09:47:34;;;;;;;;;;;19.80;51.00;;;;;;1588273;73;744;-69
2023/11/04 09:49:36;;;;;;;;;;;19.80;51.20;;;;;;1607023;72;747;-65
2023/11/04 09:51:38;;;;;;;;;;;19.80;51.30;;;;;;1607056;72;1179;-67
2023/11/04 09:53:41;;;;;;;;;;;19.90;51.50;;;;;;1598286;72;1936;-65
2023/11/04 09:55:44;;;;;;;;;;;19.80;51.20;;;;;;1606203;72;671;-66
2023/11/04 09:57:47;;;;;;;;;;;19.80;51.40;;;;;;1605815;72;728;-66
2023/11/04 09:59:49;;;;;;;;;;;19.80;51.60;;;;;;1605642;72;1336;-65
2023/11/04 10:01:50;;;;;;;;;;;19.90;51.80;;;;;;1602605;72;1147;-68
2023/11/04 10:03:54;;;;;;;;;;;19.80;51.80;;;;;;1608010;72;752;-65
2023/11/04 10:05:56;;;;;;;;;;;19.80;51.80;;;;;;1606625;72;695;-66
2023/11/04 10:07:58;;;;;;;;;;;19.90;51.90;;;;;;1605187;72;662;-66
2023/11/04 10:09:59;;;;;;;;;;;19.90;51.90;;;;;;1603193;72;783;-67
2023/11/04 10:12:03;;;;;;;;;;;19.90;52.00;;;;;;1588644;73;1148;-66
2023/11/04 10:14:05;;;;;;;;;;;19.90;52.00;;;;;;1598885;72;1915;-65
2023/11/04 10:16:08;;;;;;;;;;;19.90;52.10;;;;;;1605150;72;740;-66
2023/11/04 10:18:10;;;;;;;;;;;19.90;52.00;;;;;;1602157;72;779;-66
2023/11/04 10:20:12;;;;;;;;;;;19.90;52.10;;;;;;1607990;72;679;-65
2023/11/04 10:22:14;;;;;;;;;;;19.90;52.10;;;;;;1600747;72;1256;-65
2023/11/04 10:24:16;;;;;;;;;;;19.90;52.00;;;;;;1604757;72;740;-66
2023/11/04 10:26:18;;;;;;;;;;;19.90;52.10;;;;;;1588960;73;746;-65
2023/11/04 10:28:23;;;;;;;;;;;19.90;52.10;;;;;;1596693;72;1494;-65
2023/11/04 10:30:23;;;;;;;;;;;19.80;52.00;;;;;;1604712;72;1701;-68
2023/11/04 10:32:25;;;;;;;;;;;19.90;52.10;;;;;;1617941;72;1115;-66
2023/11/04 10:34:30;;;;;;;;;;;19.90;52.10;;;;;;1603279;72;1944;-65
2023/11/04 10:36:32;;;;;;;;;;;19.90;52.10;;;;;;1600825;72;687;-65
2023/11/04 10:38:39;;;;;;;;;;;19.90;52.10;;;;;;1610416;72;730;-66
2023/11/04 10:40:38;;;;;;;;;;;19.90;52.10;;;;;;1595929;72;1595;-66
2023/11/04 10:42:41;;;;;;;;;;;19.90;52.10;;;;;;1589623;73;1393;-67
2023/11/04 10:44:45;;;;;;;;;;;19.90;52.10;;;;;;1601202;72;935;-65
2023/11/04 10:46:54;;;;;;;;;;;19.90;52.10;;;;;;1596812;72;850;-67
2023/11/04 10:48:57;;;;;;;;;;;20.00;52.00;;;;;;1594097;72;820;-66
2023/11/04 10:51:01;;;;;;;;;;;19.80;51.90;;;;;;1604120;72;1382;-66
2023/11/04 10:53:22;;;;;;;;;;;19.90;52.00;;;;;;1605399;72;1795;-69
2023/11/04 10:55:24;;;;;;;;;;;19.90;52.10;;;;;;1593790;72;1551;-65
2023/11/04 10:57:30;;;;;;;;;;;19.90;52.00;;;;;;1601798;72;757;-66
2023/11/04 10:59:40;;;;;;;;;;;20.00;52.00;;;;;;1599372;72;750;-66
2023/11/04 11:01:42;;;;;;;;;;;20.00;51.90;;;;;;1600347;72;1150;-65
2023/11/04 11:03:44;;;;;;;;;;;19.90;52.00;;;;;;1597276;72;735;-66
2023/11/04 11:05:45;;;;;;;;;;;19.90;52.00;;;;;;1600316;72;794;-67
2023/11/04 11:07:47;;;;;;;;;;;19.90;52.10;;;;;;1605862;72;747;-65
2023/11/04 11:09:49;;;;;;;;;;;19.90;52.00;;;;;;1601175;72;1629;-65
2023/11/04 11:11:55;;;;;;;;;;;19.90;52.00;;;;;;1572525;74;1132;-66
2023/11/04 11:13:58;;;;;;;;;;;19.90;52.00;;;;;;1608128;72;1931;-66
2023/11/04 11:16:00;;;;;;;;;;;19.90;52.00;;;;;;1604430;72;692;-66
2023/11/04 11:18:03;;;;;;;;;;;19.90;52.00;;;;;;1611944;72;772;-67
2023/11/04 11:20:09;;;;;;;;;;;19.90;52.00;;;;;;1608491;72;769;-65
2023/11/04 11:22:09;;;;;;;;;;;19.90;51.90;;;;;;1610187;72;1548;-66
2023/11/04 11:24:11;;;;;;;;;;;19.90;52.00;;;;;;1611887;72;1576;-66
2023/11/04 11:26:14;;;;;;;;;;;19.90;51.90;;;;;;1604937;72;691;-66
2023/11/04 11:28:17;;;;;;;;;;;19.90;52.00;;;;;;1597115;72;774;-67
2023/11/04 11:30:21;;;;;;;;;;;19.90;51.80;;;;;;1602810;72;695;-67
2023/11/04 11:32:23;;;;;;;;;;;19.90;51.90;;;;;;1596718;72;1163;-68
2023/11/04 11:34:25;;;;;;;;;;;19.90;51.80;;;;;;1572882;74;1937;-67
2023/11/04 11:36:29;;;;;;;;;;;19.90;51.90;;;;;;1612394;72;804;-67
2023/11/04 11:38:31;;;;;;;;;;;19.80;51.80;;;;;;1607722;72;1595;-65
2023/11/04 11:40:33;;;;;;;;;;;19.90;51.90;;;;;;1607033;72;646;-66
2023/11/04 11:42:35;;;;;;;;;;;19.90;51.90;;;;;;1601418;73;1126;-66
2023/11/04 11:44:37;;;;;;;;;;;19.80;51.80;;;;;;1603138;72;700;-66
2023/11/04 11:46:41;;;;;;;;;;;19.90;51.90;;;;;;1599407;72;678;-66
2023/11/04 11:48:44;;;;;;;;;;;19.90;51.90;;;;;;1597208;72;728;-65
2023/11/04 11:50:46;;;;;;;;;;;19.90;51.80;;;;;;1599874;72;680;-69
2023/11/04 11:52:48;;;;;;;;;;;19.90;51.80;;;;;;1610534;72;1585;-65
2023/11/04 11:54:50;;;;;;;;;;;19.90;51.90;;;;;;1600510;72;1921;-68
2023/11/04 11:56:52;;;;;;;;;;;19.90;51.90;;;;;;1603737;72;777;-65
2023/11/04 11:58:54;;;;;;;;;;;19.90;51.80;;;;;;1617167;72;796;-67
2023/11/04 12:00:59;;;;;;;;;;;19.90;51.80;;;;;;1595242;72;662;-67
2023/11/04 12:03:01;;;;;;;;;;;19.90;51.80;;;;;;1602700;72;1112;-66
2023/11/04 12:05:03;;;;;;;;;;;19.80;51.80;;;;;;1612041;72;753;-69
2023/11/04 12:07:05;;;;;;;;;;;19.80;51.70;;;;;;1574797;74;1620;-66
2023/11/04 12:09:10;;;;;;;;;;;19.90;51.80;;;;;;1605204;72;927;-66